Time;durP1;ratioP1;P1;durP2;ratioP2;P2;SDS_P1;SDS_P2;PMS_P1;PMS_P2;Temp;Humidity;BMP_temperature;BMP_pressure;BME280_temperature;BME280_humidity;BME280_pressure;Samples;Min_cycle;Max_cycle;Signal;HPM_P1;HPM_P2
2023/09/25 00:00:34;;;;;;;4.63;2.78;;;14.00;99.90;;;;;;5014669;28;20030;-69
2023/09/25 00:03:01;;;;;;;6.18;2.70;;;14.00;99.90;;;;;;5021599;28;20083;-67
2023/09/25 00:05:28;;;;;;;6.93;2.92;;;13.90;99.90;;;;;;5022866;28;20029;-67
2023/09/25 00:07:54;;;;;;;7.70;2.90;;;14.00;99.90;;;;;;5027579;28;20701;-68
2023/09/25 00:10:21;;;;;;;5.32;2.70;;;13.90;99.90;;;;;;5015353;28;20109;-67
2023/09/25 00:12:46;;;;;;;7.05;3.28;;;13.90;99.90;;;;;;5015444;28;20048;-68
2023/09/25 00:15:12;;;;;;;5.07;2.92;;;14.00;99.90;;;;;;5023426;28;20025;-68
2023/09/25 00:17:39;;;;;;;4.05;2.67;;;13.90;99.90;;;;;;5016692;28;20378;-69
2023/09/25 00:20:10;;;;;;;7.47;3.03;;;14.00;99.90;;;;;;5019196;28;20026;-68
2023/09/25 00:22:39;;;;;;;5.88;2.85;;;13.90;99.90;;;;;;5023121;28;20095;-68
2023/09/25 00:25:05;;;;;;;4.25;2.80;;;13.90;99.90;;;;;;5023474;28;20022;-67
2023/09/25 00:27:34;;;;;;;4.60;2.97;;;13.90;99.90;;;;;;5027213;28;20030;-69
2023/09/25 00:30:00;;;;;;;5.25;2.67;;;13.90;99.90;;;;;;5024822;28;20120;-68
2023/09/25 00:32:27;;;;;;;6.00;3.05;;;13.90;99.90;;;;;;5021802;28;20080;-67
2023/09/25 00:34:53;;;;;;;5.97;2.90;;;13.90;99.90;;;;;;5017609;28;20048;-67
2023/09/25 00:37:21;;;;;;;4.53;2.65;;;13.90;99.90;;;;;;5023698;28;20018;-67
2023/09/25 00:39:46;;;;;;;5.30;3.15;;;13.80;99.90;;;;;;5023376;28;20034;-67
2023/09/25 00:42:12;;;;;;;4.82;2.92;;;13.80;99.90;;;;;;5019644;28;20084;-68
2023/09/25 00:44:38;;;;;;;7.60;2.90;;;13.80;99.90;;;;;;5022044;28;20363;-69
2023/09/25 00:47:05;;;;;;;6.15;2.95;;;13.80;99.90;;;;;;5024044;28;20571;-70
2023/09/25 00:49:32;;;;;;;3.65;2.85;;;13.70;99.90;;;;;;5020604;28;20037;-71
2023/09/25 00:51:58;;;;;;;5.68;2.88;;;13.70;99.90;;;;;;5016105;28;20062;-69
2023/09/25 00:54:25;;;;;;;6.80;3.65;;;13.70;99.90;;;;;;5019547;28;20029;-70
2023/09/25 00:56:51;;;;;;;4.25;2.72;;;13.70;99.90;;;;;;5020459;28;20057;-67
2023/09/25 00:59:17;;;;;;;6.70;3.63;;;13.70;99.90;;;;;;5017967;28;20052;-67
2023/09/25 01:01:43;;;;;;;8.65;3.72;;;13.60;99.90;;;;;;5020650;28;20033;-68
2023/09/25 01:04:09;;;;;;;8.32;3.20;;;13.60;99.90;;;;;;5019773;28;20053;-69
2023/09/25 01:06:35;;;;;;;5.93;3.08;;;13.60;99.90;;;;;;5020630;28;20025;-68
2023/09/25 01:09:01;;;;;;;3.90;3.38;;;13.60;99.90;;;;;;5017634;28;20420;-68
2023/09/25 01:11:28;;;;;;;7.75;3.85;;;13.60;99.90;;;;;;5018861;28;20029;-70
2023/09/25 01:13:54;;;;;;;5.40;3.88;;;13.60;99.90;;;;;;5019627;28;20587;-71
2023/09/25 01:16:22;;;;;;;3.45;3.08;;;13.70;99.90;;;;;;5018548;28;20030;-68
2023/09/25 01:18:47;;;;;;;5.15;3.38;;;13.70;99.90;;;;;;5025362;28;20056;-70
2023/09/25 01:21:13;;;;;;;5.75;3.75;;;13.70;99.90;;;;;;5022824;28;20060;-68
2023/09/25 01:23:39;;;;;;;5.53;3.40;;;13.60;99.90;;;;;;5026157;28;20083;-68
2023/09/25 01:26:05;;;;;;;7.45;3.38;;;13.70;99.90;;;;;;5018255;28;20378;-68
2023/09/25 01:28:31;;;;;;;8.25;3.88;;;13.70;99.90;;;;;;5024305;28;20174;-69
2023/09/25 01:30:58;;;;;;;10.75;3.33;;;13.70;99.90;;;;;;5025580;28;20486;-68
2023/09/25 01:33:25;;;;;;;7.35;3.60;;;13.70;99.90;;;;;;5024752;28;20022;-70
2023/09/25 01:35:51;;;;;;;6.97;3.47;;;13.70;99.90;;;;;;5015567;28;20028;-68
2023/09/25 01:38:17;;;;;;;7.15;3.50;;;13.70;99.90;;;;;;5018133;28;20115;-68
2023/09/25 01:40:43;;;;;;;6.68;3.20;;;13.60;99.90;;;;;;5025315;28;20052;-68
2023/09/25 01:43:08;;;;;;;9.10;3.47;;;13.50;99.90;;;;;;5030719;28;20029;-68
2023/09/25 01:45:34;;;;;;;6.85;3.00;;;13.60;99.90;;;;;;5018958;28;20523;-68
2023/09/25 01:48:00;;;;;;;6.80;3.28;;;13.50;99.90;;;;;;5019571;28;20029;-70
2023/09/25 01:50:27;;;;;;;4.88;3.08;;;13.40;99.90;;;;;;5020172;28;20064;-68
2023/09/25 01:53:01;;;;;;;6.78;3.20;;;13.40;99.90;;;;;;5024910;28;20034;-68
2023/09/25 01:55:35;;;;;;;6.43;2.83;;;13.50;99.90;;;;;;5017993;28;20111;-69
2023/09/25 01:58:01;;;;;;;6.38;3.70;;;13.40;99.90;;;;;;5029694;28;20065;-74
2023/09/25 02:00:26;;;;;;;7.47;3.08;;;13.50;99.90;;;;;;5021990;28;20541;-73
2023/09/25 02:02:52;;;;;;;5.53;2.97;;;13.50;99.90;;;;;;5026085;28;20104;-73
2023/09/25 02:05:18;;;;;;;8.80;3.38;;;13.50;99.90;;;;;;5027724;28;20490;-70
2023/09/25 02:07:43;;;;;;;6.63;3.13;;;13.60;99.90;;;;;;5020316;28;20041;-71
2023/09/25 02:10:09;;;;;;;7.30;3.15;;;13.50;99.90;;;;;;5021865;28;20389;-72
2023/09/25 02:12:35;;;;;;;5.47;3.67;;;13.50;99.90;;;;;;5031167;28;20064;-74
2023/09/25 02:15:04;;;;;;;4.93;3.67;;;13.50;99.90;;;;;;5020952;28;20490;-72
2023/09/25 02:17:29;;;;;;;4.57;3.10;;;13.40;99.90;;;;;;5022242;28;20076;-74
2023/09/25 02:20:12;;;;;;;6.38;3.70;;;13.30;99.90;;;;;;5023419;28;20047;-72
2023/09/25 02:22:38;;;;;;;5.93;2.85;;;13.30;99.90;;;;;;5025198;28;20032;-72
2023/09/25 02:25:04;;;;;;;10.80;3.10;;;13.10;99.90;;;;;;5023619;28;20382;-73
2023/09/25 02:27:30;;;;;;;5.18;3.45;;;13.10;99.90;;;;;;5017788;28;20026;-68
2023/09/25 02:29:55;;;;;;;6.65;3.72;;;13.10;99.90;;;;;;5022643;28;20075;-71
2023/09/25 02:32:21;;;;;;;5.63;3.90;;;13.00;99.90;;;;;;5024940;28;20069;-69
2023/09/25 02:34:47;;;;;;;10.38;3.33;;;13.00;99.90;;;;;;5017639;28;20061;-72
2023/09/25 02:37:13;;;;;;;5.85;3.30;;;13.00;99.90;;;;;;5019860;28;20021;-74
2023/09/25 02:39:39;;;;;;;7.53;3.70;;;13.00;99.90;;;;;;5020973;28;20040;-70
2023/09/25 02:42:04;;;;;;;7.50;3.35;;;13.00;99.90;;;;;;5031356;28;20051;-71
2023/09/25 02:44:30;;;;;;;10.55;3.80;;;13.00;99.90;;;;;;5025328;28;20542;-71
2023/09/25 02:46:56;;;;;;;5.95;3.67;;;13.00;99.90;;;;;;5019922;28;20486;-68
2023/09/25 02:49:21;;;;;;;4.50;3.30;;;13.00;99.90;;;;;;5017918;28;20029;-72
2023/09/25 02:51:47;;;;;;;7.07;3.55;;;13.00;99.90;;;;;;5022789;28;20096;-69
2023/09/25 02:54:13;;;;;;;6.80;3.05;;;13.00;99.90;;;;;;5023122;28;20076;-69
2023/09/25 02:56:38;;;;;;;4.88;3.63;;;13.00;99.90;;;;;;5020232;28;20574;-70
2023/09/25 02:59:04;;;;;;;7.25;3.20;;;13.00;99.90;;;;;;5021136;28;20576;-72
2023/09/25 03:01:32;;;;;;;5.95;3.60;;;12.90;99.90;;;;;;5022572;28;20490;-73
2023/09/25 03:03:58;;;;;;;4.35;3.60;;;12.90;99.90;;;;;;5021364;28;20038;-68
2023/09/25 03:06:23;;;;;;;4.38;3.40;;;12.80;99.90;;;;;;5019922;28;20030;-69
2023/09/25 03:08:49;;;;;;;5.93;3.70;;;12.80;99.90;;;;;;5024762;28;20741;-71
2023/09/25 03:11:15;;;;;;;8.63;3.58;;;12.70;99.90;;;;;;5020461;28;20399;-72
2023/09/25 03:13:41;;;;;;;6.93;3.92;;;12.70;99.90;;;;;;5023380;28;20634;-70
2023/09/25 03:16:13;;;;;;;7.68;3.97;;;12.60;99.90;;;;;;5021550;28;20033;-70
2023/09/25 03:18:40;;;;;;;5.97;3.85;;;12.60;99.90;;;;;;5022685;28;20033;-68
2023/09/25 03:21:14;;;;;;;6.15;4.13;;;12.60;99.90;;;;;;5021108;28;20022;-70
2023/09/25 03:23:41;;;;;;;7.18;3.60;;;12.50;99.90;;;;;;5020774;28;20104;-68
2023/09/25 03:26:14;;;;;;;4.55;3.58;;;12.60;99.90;;;;;;5025380;28;20022;-70
2023/09/25 03:28:40;;;;;;;6.55;4.30;;;12.50;99.90;;;;;;5019893;28;20040;-69
2023/09/25 03:31:06;;;;;;;7.07;4.22;;;12.60;99.90;;;;;;5020072;28;20029;-69
2023/09/25 03:33:32;;;;;;;5.88;3.75;;;12.60;99.90;;;;;;5022324;28;20033;-70
2023/09/25 03:35:57;;;;;;;9.55;4.00;;;12.60;99.90;;;;;;5021658;28;20402;-68
2023/09/25 03:38:23;;;;;;;6.30;4.05;;;12.50;99.90;;;;;;5017575;28;20037;-69
2023/09/25 03:40:49;;;;;;;6.07;3.83;;;12.50;99.90;;;;;;5019782;28;20021;-69
2023/09/25 03:43:15;;;;;;;5.38;4.15;;;12.50;99.90;;;;;;5030255;28;20024;-68
2023/09/25 03:45:40;;;;;;;8.23;3.90;;;12.40;99.90;;;;;;5018888;28;20026;-68
2023/09/25 03:48:06;;;;;;;12.93;4.35;;;12.40;99.90;;;;;;5021343;28;20477;-70
2023/09/25 03:50:32;;;;;;;6.38;3.75;;;12.50;99.90;;;;;;5021290;28;20820;-72
2023/09/25 03:52:58;;;;;;;8.55;4.85;;;12.50;99.90;;;;;;5018386;28;20426;-73
2023/09/25 03:55:24;;;;;;;6.35;4.32;;;12.40;99.90;;;;;;5017443;28;20104;-70
2023/09/25 03:57:50;;;;;;;11.23;4.90;;;12.50;99.90;;;;;;5020809;28;20614;-75
2023/09/25 04:00:16;;;;;;;7.32;4.57;;;12.50;99.90;;;;;;5020134;28;20029;-74
2023/09/25 04:02:42;;;;;;;8.75;4.88;;;12.50;99.90;;;;;;5019547;28;20121;-74
2023/09/25 04:05:09;;;;;;;8.95;5.10;;;12.50;99.90;;;;;;5028313;28;20116;-74
2023/09/25 04:07:34;;;;;;;7.20;4.55;;;12.50;99.90;;;;;;5019098;28;20024;-73
2023/09/25 04:10:02;;;;;;;8.00;4.43;;;12.40;99.90;;;;;;5021317;28;20037;-72
2023/09/25 04:12:29;;;;;;;7.07;4.38;;;12.40;99.90;;;;;;5023138;28;20517;-74
2023/09/25 04:14:55;;;;;;;8.60;4.75;;;12.40;99.90;;;;;;5023145;28;20033;-72
2023/09/25 04:17:21;;;;;;;9.70;5.03;;;12.30;99.90;;;;;;5021976;28;20034;-74
2023/09/25 04:19:48;;;;;;;11.80;4.60;;;12.30;99.90;;;;;;5015552;28;20379;-74
2023/09/25 04:22:14;;;;;;;9.63;4.75;;;12.40;99.90;;;;;;5023077;28;20525;-73
2023/09/25 04:24:40;;;;;;;8.82;4.93;;;12.30;99.90;;;;;;5016232;28;20025;-73
2023/09/25 04:27:06;;;;;;;5.53;4.15;;;12.30;99.90;;;;;;5019417;28;20355;-74
2023/09/25 04:29:31;;;;;;;8.25;4.65;;;12.40;99.90;;;;;;5016611;28;20026;-74
2023/09/25 04:31:57;;;;;;;11.35;4.97;;;12.40;99.90;;;;;;5019805;28;20042;-72
2023/09/25 04:34:23;;;;;;;10.95;5.45;;;12.40;99.90;;;;;;5022337;28;20112;-72
2023/09/25 04:36:49;;;;;;;14.88;5.20;;;12.40;99.90;;;;;;5017815;28;20644;-73
2023/09/25 04:39:16;;;;;;;9.68;5.63;;;12.40;99.90;;;;;;5023451;28;20059;-75
2023/09/25 04:41:45;;;;;;;7.53;5.32;;;12.50;99.90;;;;;;5017336;28;20025;-70
2023/09/25 04:44:11;;;;;;;9.73;5.38;;;12.50;99.90;;;;;;5020068;28;20037;-74
2023/09/25 04:46:37;;;;;;;8.80;5.05;;;12.50;99.90;;;;;;5023330;28;20021;-73
2023/09/25 04:49:06;;;;;;;9.70;5.28;;;12.50;99.90;;;;;;5019649;28;20026;-74
2023/09/25 04:51:33;;;;;;;11.68;6.15;;;12.50;99.90;;;;;;5021186;28;20029;-74
2023/09/25 04:54:00;;;;;;;11.30;5.63;;;12.50;99.90;;;;;;5028389;28;20057;-74
2023/09/25 04:56:27;;;;;;;6.13;5.25;;;12.50;99.90;;;;;;5021394;28;20049;-74
2023/09/25 04:58:53;;;;;;;8.43;4.95;;;12.40;99.90;;;;;;5022411;28;20032;-73
2023/09/25 05:01:19;;;;;;;10.32;5.10;;;12.40;99.90;;;;;;5018506;28;20030;-69
2023/09/25 05:03:46;;;;;;;12.25;5.00;;;12.40;99.90;;;;;;5022670;28;20025;-73
2023/09/25 05:06:12;;;;;;;10.07;5.38;;;12.50;99.90;;;;;;5021210;28;20104;-74
2023/09/25 05:08:38;;;;;;;11.00;5.63;;;12.40;99.90;;;;;;5022375;28;20120;-73
2023/09/25 05:11:07;;;;;;;8.07;5.43;;;12.40;99.90;;;;;;5019033;28;20022;-75
2023/09/25 05:13:33;;;;;;;8.45;5.28;;;12.40;99.90;;;;;;5020965;28;20510;-71
2023/09/25 05:16:01;;;;;;;8.65;5.47;;;12.40;99.90;;;;;;5019208;28;20030;-73
2023/09/25 05:18:27;;;;;;;9.43;5.13;;;12.40;99.90;;;;;;5018164;28;20060;-72
2023/09/25 05:20:54;;;;;;;11.38;5.38;;;12.50;99.90;;;;;;5015322;28;20026;-73
2023/09/25 05:23:20;;;;;;;16.52;5.57;;;12.50;99.90;;;;;;5019587;28;20041;-72
2023/09/25 05:25:46;;;;;;;12.55;6.65;;;12.50;99.90;;;;;;5022451;28;20025;-71
2023/09/25 05:28:12;;;;;;;11.48;6.47;;;12.40;99.90;;;;;;5025745;28;20029;-73
2023/09/25 05:30:38;;;;;;;10.25;5.72;;;12.40;99.90;;;;;;5016157;28;20045;-73
2023/09/25 05:33:04;;;;;;;11.35;5.15;;;12.40;99.90;;;;;;5024982;28;20037;-74
2023/09/25 05:35:30;;;;;;;13.82;6.07;;;12.30;99.90;;;;;;5026973;28;20379;-73
2023/09/25 05:37:56;;;;;;;7.95;5.15;;;12.30;99.90;;;;;;5024370;28;20061;-72
2023/09/25 05:40:22;;;;;;;9.65;6.15;;;12.30;99.90;;;;;;5023299;28;20108;-74
2023/09/25 05:42:49;;;;;;;12.40;6.28;;;12.20;99.90;;;;;;5027261;28;20033;-74
2023/09/25 05:45:16;;;;;;;8.73;6.07;;;12.30;99.90;;;;;;5022798;28;20046;-72
2023/09/25 05:47:43;;;;;;;10.02;5.88;;;12.20;99.90;;;;;;5024305;28;20028;-70
2023/09/25 05:50:09;;;;;;;9.63;5.60;;;12.30;99.90;;;;;;5023292;28;20021;-71
2023/09/25 05:52:36;;;;;;;9.15;5.38;;;12.30;99.90;;;;;;5021320;28;20042;-73
2023/09/25 05:55:07;;;;;;;12.88;6.20;;;12.30;99.90;;;;;;5027999;28;20115;-73
2023/09/25 05:57:34;;;;;;;10.05;6.07;;;12.30;99.90;;;;;;5023089;28;20025;-70
2023/09/25 06:00:00;;;;;;;11.52;5.88;;;12.30;99.90;;;;;;5022048;28;20025;-70
2023/09/25 06:02:27;;;;;;;10.18;5.25;;;12.30;99.90;;;;;;5023053;28;20068;-73
2023/09/25 06:04:53;;;;;;;7.97;5.22;;;12.30;99.90;;;;;;5024182;28;21003;-72
2023/09/25 06:07:19;;;;;;;10.68;5.18;;;12.30;99.90;;;;;;5022850;28;20037;-72
2023/09/25 06:09:45;;;;;;;10.60;5.30;;;12.40;99.90;;;;;;5024016;28;21151;-74
2023/09/25 06:12:11;;;;;;;12.38;5.57;;;12.30;99.90;;;;;;5023644;28;20471;-72
2023/09/25 06:14:37;;;;;;;12.13;5.90;;;12.30;99.90;;;;;;5025080;28;20033;-73
2023/09/25 06:17:02;;;;;;;8.45;5.43;;;12.20;99.90;;;;;;5025932;28;20032;-71
2023/09/25 06:19:28;;;;;;;7.63;4.90;;;12.20;99.90;;;;;;5022651;28;20117;-69
2023/09/25 06:21:54;;;;;;;6.82;5.40;;;12.20;99.90;;;;;;5019591;28;20018;-71
2023/09/25 06:24:21;;;;;;;9.82;5.90;;;12.20;99.90;;;;;;5030988;28;20033;-72
2023/09/25 06:26:48;;;;;;;8.25;5.38;;;12.20;99.90;;;;;;5022166;28;20026;-73
2023/09/25 06:29:14;;;;;;;12.82;5.40;;;12.20;99.90;;;;;;5025605;28;20321;-72
2023/09/25 06:31:41;;;;;;;10.73;5.45;;;12.30;99.90;;;;;;5024184;28;20089;-73
2023/09/25 06:34:13;;;;;;;6.97;4.65;;;12.30;99.90;;;;;;5019798;28;20056;-73
2023/09/25 06:36:39;;;;;;;10.35;5.18;;;12.20;99.90;;;;;;5020498;28;20075;-70
2023/09/25 06:39:11;;;;;;;8.82;5.53;;;12.30;99.90;;;;;;5019155;28;20418;-72
2023/09/25 06:41:37;;;;;;;9.00;5.63;;;12.30;99.90;;;;;;5026499;28;20034;-73
2023/09/25 06:44:07;;;;;;;9.90;5.30;;;12.40;99.90;;;;;;5017678;28;20014;-72
2023/09/25 06:46:34;;;;;;;8.05;5.47;;;12.40;99.90;;;;;;5019606;28;20033;-72
2023/09/25 06:49:01;;;;;;;13.82;5.53;;;12.50;99.90;;;;;;5024587;28;20093;-72
2023/09/25 06:51:28;;;;;;;12.35;6.03;;;12.50;99.90;;;;;;5020951;28;20521;-71
2023/09/25 06:53:54;;;;;;;7.28;5.28;;;12.60;99.90;;;;;;5031377;28;20051;-71
2023/09/25 06:56:20;;;;;;;12.07;5.40;;;12.50;99.90;;;;;;5021036;28;20112;-71
2023/09/25 06:58:45;;;;;;;9.55;5.97;;;12.60;99.90;;;;;;5021469;28;20037;-69
2023/09/25 07:01:11;;;;;;;8.43;5.55;;;12.70;99.90;;;;;;5023837;28;20037;-69
2023/09/25 07:03:37;;;;;;;7.93;5.00;;;12.70;99.90;;;;;;5026945;28;20029;-70
2023/09/25 07:06:03;;;;;;;13.55;6.00;;;12.60;99.90;;;;;;5028063;28;20125;-72
2023/09/25 07:08:30;;;;;;;7.45;5.20;;;12.70;99.90;;;;;;5030445;28;20029;-72
2023/09/25 07:10:58;;;;;;;11.15;5.93;;;12.70;99.90;;;;;;5028053;28;20018;-68
2023/09/25 07:13:24;;;;;;;10.05;5.60;;;12.70;99.90;;;;;;5021906;28;20046;-68
2023/09/25 07:15:50;;;;;;;8.85;4.60;;;12.80;99.90;;;;;;5023416;28;20101;-71
2023/09/25 07:18:17;;;;;;;12.63;5.05;;;12.90;99.90;;;;;;5020250;28;20033;-71
2023/09/25 07:20:45;;;;;;;5.78;4.95;;;13.00;99.90;;;;;;5027110;28;20048;-72
2023/09/25 07:23:11;;;;;;;9.90;5.10;;;13.00;99.90;;;;;;5027078;28;20446;-68
2023/09/25 07:25:37;;;;;;;8.23;4.60;;;13.00;99.90;;;;;;5029543;28;20022;-71
2023/09/25 07:28:03;;;;;;;5.38;4.38;;;13.10;99.90;;;;;;5025338;28;20025;-72
2023/09/25 07:30:29;;;;;;;5.93;4.40;;;13.20;99.90;;;;;;5032519;28;20464;-72
2023/09/25 07:32:55;;;;;;;9.35;4.28;;;13.30;99.90;;;;;;5025536;28;20056;-71
2023/09/25 07:35:20;;;;;;;7.47;4.55;;;13.40;99.90;;;;;;5019875;28;20391;-72
2023/09/25 07:37:47;;;;;;;5.88;4.20;;;13.50;99.90;;;;;;5020233;28;20036;-69
2023/09/25 07:40:14;;;;;;;6.32;4.47;;;13.60;99.90;;;;;;5016302;28;20402;-70
2023/09/25 07:42:43;;;;;;;5.97;3.88;;;13.60;99.90;;;;;;5022789;28;20100;-71
2023/09/25 07:45:12;;;;;;;5.30;3.92;;;13.70;99.90;;;;;;5022419;28;20076;-71
2023/09/25 07:47:41;;;;;;;5.82;3.85;;;13.90;99.90;;;;;;5021061;28;20022;-71
2023/09/25 07:50:11;;;;;;;5.47;4.07;;;13.90;99.90;;;;;;5029237;28;20128;-71
2023/09/25 07:52:41;;;;;;;5.28;3.30;;;14.10;99.90;;;;;;5021697;28;20052;-72
2023/09/25 07:55:10;;;;;;;7.57;3.55;;;14.10;99.90;;;;;;5027360;28;20075;-72
2023/09/25 07:57:42;;;;;;;6.45;4.22;;;14.20;99.90;;;;;;5020432;28;20033;-71
2023/09/25 08:00:15;;;;;;;8.37;3.83;;;14.30;99.90;;;;;;5021659;28;20021;-72
2023/09/25 08:02:47;;;;;;;10.32;3.60;;;14.40;99.90;;;;;;5027819;28;20283;-71
2023/09/25 08:05:19;;;;;;;10.93;3.55;;;14.40;99.90;;;;;;5016847;28;20076;-70
2023/09/25 08:07:46;;;;;;;4.55;3.40;;;14.50;99.90;;;;;;5024674;28;20048;-72
2023/09/25 08:10:12;;;;;;;6.28;3.97;;;14.60;99.90;;;;;;5028791;28;20066;-70
2023/09/25 08:12:38;;;;;;;9.70;3.80;;;14.70;99.90;;;;;;5028897;28;20033;-70
2023/09/25 08:15:05;;;;;;;15.60;4.50;;;14.80;99.90;;;;;;5017815;28;20075;-71
2023/09/25 08:17:31;;;;;;;7.72;3.70;;;14.90;99.90;;;;;;5027607;28;20381;-72
2023/09/25 08:19:57;;;;;;;3.38;2.60;;;15.00;99.90;;;;;;5020359;28;20435;-73
2023/09/25 08:22:22;;;;;;;8.80;4.43;;;15.10;99.90;;;;;;5024262;28;20110;-74
2023/09/25 08:24:48;;;;;;;5.82;3.15;;;15.20;99.90;;;;;;5021519;28;20063;-74
2023/09/25 08:27:14;;;;;;;5.82;3.40;;;15.20;99.90;;;;;;5023515;28;20109;-75
2023/09/25 08:29:39;;;;;;;5.35;3.20;;;15.30;99.90;;;;;;5025332;28;20040;-72
2023/09/25 08:32:07;;;;;;;5.43;2.80;;;15.40;99.90;;;;;;5014879;28;20096;-74
2023/09/25 08:34:34;;;;;;;4.43;2.70;;;15.50;99.90;;;;;;5021571;28;20041;-74
2023/09/25 08:37:00;;;;;;;6.72;2.92;;;15.60;99.90;;;;;;5024630;28;20025;-73
2023/09/25 08:39:25;;;;;;;3.88;3.00;;;15.80;99.90;;;;;;5027772;28;20066;-73
2023/09/25 08:41:51;;;;;;;3.72;2.60;;;15.80;99.90;;;;;;5027938;28;20414;-73
2023/09/25 08:44:18;;;;;;;4.78;2.08;;;16.00;99.90;;;;;;5025925;28;20030;-73
2023/09/25 08:46:45;;;;;;;3.95;2.45;;;16.10;99.90;;;;;;5024836;28;20478;-73
2023/09/25 08:49:12;;;;;;;5.20;2.83;;;16.20;99.90;;;;;;5026322;28;20552;-74
2023/09/25 08:51:39;;;;;;;2.80;1.90;;;16.30;99.90;;;;;;5020043;28;20034;-73
2023/09/25 08:54:06;;;;;;;3.17;1.98;;;16.40;99.90;;;;;;5020941;28;20037;-74
2023/09/25 08:56:33;;;;;;;3.92;2.42;;;16.50;99.90;;;;;;5022560;28;20045;-74
2023/09/25 08:59:00;;;;;;;4.63;2.17;;;16.60;99.90;;;;;;5015177;28;20471;-74
2023/09/25 09:01:28;;;;;;;3.20;1.92;;;16.70;99.90;;;;;;5027350;28;20034;-74
2023/09/25 09:03:53;;;;;;;7.72;1.88;;;16.80;99.90;;;;;;5018052;28;20471;-75
2023/09/25 09:06:19;;;;;;;5.78;2.33;;;16.90;99.90;;;;;;5022003;28;20041;-75
2023/09/25 09:08:47;;;;;;;5.70;2.00;;;17.00;99.90;;;;;;5021483;28;20457;-73
2023/09/25 09:11:13;;;;;;;4.47;2.00;;;17.10;99.90;;;;;;5019506;28;20030;-74
2023/09/25 09:13:46;;;;;;;4.45;2.30;;;17.20;99.90;;;;;;5031871;28;20025;-72
2023/09/25 09:16:14;;;;;;;2.25;1.65;;;17.30;99.90;;;;;;5022925;28;20021;-72
2023/09/25 09:18:40;;;;;;;2.63;2.10;;;17.40;99.90;;;;;;5023091;28;20034;-73
2023/09/25 09:21:19;;;;;;;5.95;1.98;;;17.50;99.90;;;;;;5021987;28;20025;-73
2023/09/25 09:23:45;;;;;;;3.53;2.20;;;17.60;99.90;;;;;;5027234;28;20061;-73
2023/09/25 09:26:12;;;;;;;4.20;2.20;;;17.70;99.90;;;;;;5023780;28;20034;-72
2023/09/25 09:28:38;;;;;;;2.72;1.80;;;17.70;99.90;;;;;;5024662;28;20068;-71
2023/09/25 09:31:07;;;;;;;2.63;1.70;;;17.80;99.90;;;;;;5026296;28;20482;-73
2023/09/25 09:33:37;;;;;;;2.78;1.90;;;17.90;99.90;;;;;;5025136;28;20478;-73
2023/09/25 09:36:03;;;;;;;6.07;2.60;;;18.10;99.90;;;;;;5028828;28;20109;-71
2023/09/25 09:38:29;;;;;;;3.55;1.83;;;18.20;99.90;;;;;;5025069;28;20666;-71
2023/09/25 09:40:56;;;;;;;3.13;2.17;;;18.20;99.90;;;;;;5026020;28;20397;-70
2023/09/25 09:43:23;;;;;;;5.82;2.45;;;18.40;99.90;;;;;;5025398;28;20022;-72
2023/09/25 09:45:50;;;;;;;4.70;1.98;;;18.50;99.90;;;;;;5030016;28;20033;-73
2023/09/25 09:48:19;;;;;;;2.47;1.77;;;18.60;99.90;;;;;;5029178;28;20104;-73
2023/09/25 09:50:48;;;;;;;2.53;1.90;;;18.70;99.90;;;;;;5028343;28;20028;-71
2023/09/25 09:53:17;;;;;;;2.55;1.40;;;18.80;99.90;;;;;;5025213;28;20486;-76
2023/09/25 09:55:44;;;;;;;2.70;1.75;;;18.90;99.90;;;;;;5027472;28;20041;-71
2023/09/25 09:58:11;;;;;;;5.00;1.35;;;19.00;99.90;;;;;;5023942;28;20534;-70
2023/09/25 10:00:39;;;;;;;3.83;1.95;;;19.20;99.90;;;;;;5020367;28;20061;-70
2023/09/25 10:03:08;;;;;;;3.13;1.90;;;19.30;99.90;;;;;;5025837;28;20017;-71
2023/09/25 10:05:47;;;;;;;3.05;1.77;;;19.40;99.90;;;;;;5023395;28;20040;-71
2023/09/25 10:08:15;;;;;;;5.43;1.70;;;19.50;99.90;;;;;;5027299;28;20188;-71
2023/09/25 10:10:45;;;;;;;3.00;1.52;;;19.50;99.90;;;;;;5028911;28;20037;-75
2023/09/25 10:13:24;;;;;;;2.88;1.48;;;19.60;99.90;;;;;;5024189;28;20044;-76
2023/09/25 10:15:58;;;;;;;4.90;1.75;;;19.60;99.90;;;;;;5030335;28;20527;-72
2023/09/25 10:18:29;;;;;;;2.53;1.50;;;19.80;99.90;;;;;;5021391;28;20034;-72
2023/09/25 10:21:09;;;;;;;2.08;1.80;;;19.90;99.90;;;;;;5019366;28;20036;-72
2023/09/25 10:23:35;;;;;;;16.67;2.17;;;20.00;99.90;;;;;;5028488;28;20068;-70
2023/09/25 10:26:03;;;;;;;4.75;1.88;;;20.10;99.90;;;;;;5022641;28;20508;-71
2023/09/25 10:28:36;;;;;;;3.28;1.40;;;20.20;99.90;;;;;;5029650;28;20438;-71
2023/09/25 10:31:03;;;;;;;2.25;1.67;;;20.20;99.90;;;;;;5024227;28;20022;-71
2023/09/25 10:33:33;;;;;;;4.07;1.42;;;20.20;99.90;;;;;;5022072;28;20087;-70
2023/09/25 10:36:04;;;;;;;2.70;1.80;;;20.30;99.90;;;;;;5026270;28;20022;-70
2023/09/25 10:38:36;;;;;;;11.27;2.58;;;20.40;99.90;;;;;;5025182;28;20025;-72
2023/09/25 10:41:06;;;;;;;2.05;1.85;;;20.50;99.90;;;;;;5026648;28;20045;-71
2023/09/25 10:43:33;;;;;;;5.65;1.70;;;20.50;99.90;;;;;;5029695;28;20017;-75
2023/09/25 10:45:59;;;;;;;3.35;1.73;;;20.50;99.90;;;;;;5023984;28;20026;-73
2023/09/25 10:48:27;;;;;;;3.85;1.95;;;20.40;99.90;;;;;;5023082;28;20064;-74
2023/09/25 10:50:54;;;;;;;3.25;1.65;;;20.50;99.90;;;;;;5021035;28;20049;-74
2023/09/25 10:53:21;;;;;;;4.70;1.90;;;20.60;99.90;;;;;;5024247;28;20065;-75
2023/09/25 10:55:48;;;;;;;2.45;1.63;;;20.70;99.90;;;;;;5028018;28;20112;-74
2023/09/25 10:58:14;;;;;;;2.03;1.55;;;20.80;99.90;;;;;;5026966;28;20602;-73
2023/09/25 11:00:42;;;;;;;2.90;1.60;;;20.80;99.90;;;;;;5024436;28;20022;-75
2023/09/25 11:03:09;;;;;;;2.67;1.80;;;20.90;99.90;;;;;;5028249;28;20017;-75
2023/09/25 11:05:38;;;;;;;3.63;1.60;;;20.90;99.90;;;;;;5027969;28;20022;-74
2023/09/25 11:08:15;;;;;;;2.63;2.15;;;20.90;99.90;;;;;;5028259;28;20108;-73
2023/09/25 11:10:42;;;;;;;4.75;1.67;;;20.90;99.90;;;;;;5025471;28;20033;-74
2023/09/25 11:13:08;;;;;;;3.55;1.80;;;20.90;99.90;;;;;;5029131;28;20087;-75
2023/09/25 11:15:37;;;;;;;7.15;1.75;;;21.00;99.90;;;;;;5023555;28;20033;-73
2023/09/25 11:18:03;;;;;;;2.40;1.80;;;21.10;99.90;;;;;;5024613;28;20026;-74
2023/09/25 11:20:33;;;;;;;2.00;1.60;;;21.20;99.90;;;;;;5024128;28;20497;-73
2023/09/25 11:23:15;;;;;;;4.35;1.73;;;21.20;99.90;;;;;;5027157;28;20034;-74
2023/09/25 11:25:47;;;;;;;2.40;1.38;;;21.30;99.90;;;;;;5028873;28;20040;-73
2023/09/25 11:28:14;;;;;;;2.88;1.80;;;21.30;99.90;;;;;;5023993;28;20022;-73
2023/09/25 11:30:41;;;;;;;2.75;1.35;;;21.40;99.90;;;;;;5023297;28;20116;-72
2023/09/25 11:33:09;;;;;;;2.80;1.40;;;21.50;99.90;;;;;;5027096;28;20385;-72
2023/09/25 11:35:38;;;;;;;6.03;1.75;;;21.50;99.90;;;;;;5028568;28;20033;-72
2023/09/25 11:38:24;;;;;;;2.85;1.70;;;21.60;99.90;;;;;;5019697;28;20050;-73
2023/09/25 11:40:52;;;;;;;3.58;1.58;;;21.60;99.90;;;;;;5027161;28;20048;-75
2023/09/25 11:43:18;;;;;;;3.90;1.90;;;21.70;99.90;;;;;;5028653;28;20064;-76
2023/09/25 11:45:44;;;;;;;4.13;1.25;;;21.70;99.90;;;;;;5027410;28;20028;-76
2023/09/25 11:48:11;;;;;;;2.50;1.73;;;21.70;99.90;;;;;;5023450;28;20097;-76
2023/09/25 11:50:37;;;;;;;5.65;1.48;;;21.70;99.90;;;;;;5026215;28;20033;-74
2023/09/25 11:53:03;;;;;;;3.78;1.65;;;21.70;99.90;;;;;;5020356;28;20064;-75
2023/09/25 11:55:29;;;;;;;3.13;1.70;;;21.70;99.90;;;;;;5026527;28;20022;-77
2023/09/25 11:57:55;;;;;;;2.28;1.40;;;21.70;99.90;;;;;;5021454;28;20482;-77
2023/09/25 12:00:27;;;;;;;2.28;1.50;;;21.70;99.90;;;;;;5015220;28;20072;-75
2023/09/25 12:02:53;;;;;;;2.13;1.30;;;21.80;99.90;;;;;;5024341;28;20049;-77
2023/09/25 12:05:20;;;;;;;4.13;1.70;;;21.90;99.90;;;;;;5025889;28;20021;-74
2023/09/25 12:07:47;;;;;;;4.57;1.50;;;21.90;99.90;;;;;;5023045;28;20034;-76
2023/09/25 12:10:17;;;;;;;1.70;1.40;;;22.00;99.90;;;;;;5021425;28;20045;-77
2023/09/25 12:12:45;;;;;;;2.03;1.40;;;22.00;99.90;;;;;;5027815;28;20033;-76
2023/09/25 12:15:14;;;;;;;2.38;1.58;;;22.00;99.90;;;;;;5025341;28;20047;-77
2023/09/25 12:17:40;;;;;;;1.58;1.15;;;22.10;99.90;;;;;;5039958;28;20025;-77
2023/09/25 12:20:14;;;;;;;3.85;1.33;;;22.20;99.90;;;;;;5027723;28;20026;-76
2023/09/25 12:22:41;;;;;;;2.47;1.40;;;22.20;99.90;;;;;;5018133;28;20425;-76
2023/09/25 12:25:09;;;;;;;1.85;1.50;;;22.20;99.90;;;;;;5023328;28;20117;-76
2023/09/25 12:27:36;;;;;;;2.78;1.30;;;22.20;99.90;;;;;;5019992;28;20052;-76
2023/09/25 12:30:03;;;;;;;2.40;1.45;;;22.20;99.90;;;;;;5019160;28;20030;-75
2023/09/25 12:32:29;;;;;;;6.60;1.90;;;22.30;99.90;;;;;;5028392;28;20112;-75
2023/09/25 12:34:55;;;;;;;1.95;1.48;;;22.40;99.90;;;;;;5019077;28;20096;-75
2023/09/25 12:37:21;;;;;;;8.73;2.05;;;22.30;99.90;;;;;;5029161;28;20498;-75
2023/09/25 12:39:47;;;;;;;2.40;1.58;;;22.40;99.90;;;;;;5022279;28;20478;-73
2023/09/25 12:42:13;;;;;;;2.83;1.50;;;22.40;99.90;;;;;;5017097;28;20022;-74
2023/09/25 12:44:39;;;;;;;2.88;1.20;;;22.40;99.90;;;;;;5028648;28;20034;-74